Terminal Aerodrome Forecast
Issued by NWS Billings, MT

Home | Current Version | Previous Version | Text Only | Print | Product List | Glossary On
Versions: 1 2 3 4 5 6 7 8 9 10 11 12 13 14 15 16 17 18 19 20 21 22 23 24 25 26 27 28 29 30 31 32 33 34 35 36 37 38
000
FTUS45 KBYZ 291720
TAFSHR
TAF
KSHR 291720Z 2918/3018 VRB04KT P6SM VCSH BKN004 OVC015
      TEMPO 2919/2921 SCT015 BKN035
     FM292100 VRB06KT P6SM BKN035
     FM300500 VRB04KT P6SM FEW100
     FM301600 10009KT P6SM VCSH SCT100=

USA.gov is the U.S. government's official web portal to all federal, state and local government web resources and services.